Time;durP1;ratioP1;P1;durP2;ratioP2;P2;SDS_P1;SDS_P2;PMS_P1;PMS_P2;Temp;Humidity;BMP_temperature;BMP_pressure;BME280_temperature;BME280_humidity;BME280_pressure;Samples;Min_cycle;Max_cycle;Signal;HPM_P1;HPM_P2
2024/02/29 00:00:18;;;;;;;4.28;1.20;;;;;;;;;;5044526;28;20045;-73
2024/02/29 00:02:49;;;;;;;5.93;1.65;;;;;;;;;;5044595;28;20048;-73
2024/02/29 00:05:20;;;;;;;7.40;1.20;;;;;;;;;;5044515;28;20045;-72
2024/02/29 00:07:52;;;;;;;7.18;1.38;;;;;;;;;;5044470;28;20059;-73
2024/02/29 00:10:23;;;;;;;5.53;1.52;;;;;;;;;;5044118;28;20416;-72
2024/02/29 00:12:54;;;;;;;6.18;1.52;;;;;;;;;;5044509;28;20041;-75
2024/02/29 00:15:26;;;;;;;9.20;1.40;;;;;;;;;;5044011;28;20049;-73
2024/02/29 00:17:57;;;;;;;3.42;1.35;;;;;;;;;;5044087;28;20526;-74
2024/02/29 00:20:27;;;;;;;6.50;1.60;;;;;;;;;;5044238;28;20060;-74
2024/02/29 00:22:58;;;;;;;7.65;1.42;;;;;;;;;;5043924;28;20415;-72
2024/02/29 00:25:28;;;;;;;10.90;1.73;;;;;;;;;;5043971;28;20051;-74
2024/02/29 00:27:58;;;;;;;8.18;1.40;;;;;;;;;;5043586;28;20056;-74
2024/02/29 00:30:29;;;;;;;9.02;1.50;;;;;;;;;;5043474;28;20053;-74
2024/02/29 00:33:03;;;;;;;10.55;1.73;;;;;;;;;;5043988;28;20071;-73
2024/02/29 00:35:33;;;;;;;9.70;1.70;;;;;;;;;;5044007;28;20055;-74
2024/02/29 00:38:03;;;;;;;9.60;1.48;;;;;;;;;;5043334;28;20063;-73
2024/02/29 00:40:35;;;;;;;4.55;1.20;;;;;;;;;;5043927;28;20668;-74
2024/02/29 00:43:05;;;;;;;5.47;1.23;;;;;;;;;;5041577;28;20400;-74
2024/02/29 00:45:37;;;;;;;9.63;1.88;;;;;;;;;;5043607;28;20095;-73
2024/02/29 00:48:07;;;;;;;5.13;1.30;;;;;;;;;;5043501;28;20511;-74
2024/02/29 00:50:37;;;;;;;8.07;1.63;;;;;;;;;;5041922;28;20659;-72
2024/02/29 00:53:08;;;;;;;6.53;1.33;;;;;;;;;;5043651;28;20051;-74
2024/02/29 00:55:39;;;;;;;7.43;1.48;;;;;;;;;;5042890;28;20817;-75
2024/02/29 00:58:10;;;;;;;8.38;1.30;;;;;;;;;;5043270;28;20056;-75
2024/02/29 01:00:41;;;;;;;4.97;1.00;;;;;;;;;;5041512;28;20416;-73
2024/02/29 01:03:11;;;;;;;7.00;1.15;;;;;;;;;;5042372;28;20053;-73
2024/02/29 01:05:41;;;;;;;10.30;1.67;;;;;;;;;;5040561;28;20112;-76
2024/02/29 01:08:12;;;;;;;4.10;1.08;;;;;;;;;;5040926;28;20055;-75
2024/02/29 01:10:47;;;;;;;5.32;1.25;;;;;;;;;;5042718;28;20416;-73
2024/02/29 01:13:17;;;;;;;8.32;1.30;;;;;;;;;;5041229;28;20056;-74
2024/02/29 01:15:49;;;;;;;6.47;1.15;;;;;;;;;;5041592;28;20508;-75
2024/02/29 01:18:20;;;;;;;6.32;1.20;;;;;;;;;;5042977;28;20055;-76
2024/02/29 01:20:51;;;;;;;6.00;1.33;;;;;;;;;;5042718;28;20053;-74
2024/02/29 01:23:21;;;;;;;9.55;1.60;;;;;;;;;;5042266;28;20056;-76
2024/02/29 01:25:51;;;;;;;5.70;1.23;;;;;;;;;;5042199;28;20041;-74
2024/02/29 01:28:21;;;;;;;4.32;1.17;;;;;;;;;;5042695;28;20056;-75
2024/02/29 01:30:52;;;;;;;8.68;1.60;;;;;;;;;;5041470;28;20056;-76
2024/02/29 01:33:22;;;;;;;7.55;1.55;;;;;;;;;;5042393;28;20064;-73
2024/02/29 01:35:52;;;;;;;8.43;1.30;;;;;;;;;;5042448;28;20041;-73
2024/02/29 01:38:23;;;;;;;7.95;1.10;;;;;;;;;;5042725;28;20064;-74
2024/02/29 01:40:54;;;;;;;7.70;1.40;;;;;;;;;;5042955;28;20041;-76
2024/02/29 01:43:25;;;;;;;4.07;1.08;;;;;;;;;;5042810;28;20052;-74
2024/02/29 01:46:07;;;;;;;14.00;1.63;;;;;;;;;;5042419;28;20384;-75
2024/02/29 01:48:39;;;;;;;3.75;1.08;;;;;;;;;;5041548;28;20053;-73
2024/02/29 01:51:10;;;;;;;3.58;1.30;;;;;;;;;;5042795;28;20055;-73
2024/02/29 01:53:41;;;;;;;8.23;1.65;;;;;;;;;;5041275;28;20056;-76
2024/02/29 01:56:15;;;;;;;5.68;1.42;;;;;;;;;;5041510;28;20490;-74
2024/02/29 01:58:46;;;;;;;7.18;2.15;;;;;;;;;;5040569;28;20056;-74
2024/02/29 02:01:18;;;;;;;13.40;2.17;;;;;;;;;;5042249;28;20049;-74
2024/02/29 02:03:48;;;;;;;7.22;1.70;;;;;;;;;;5042022;28;20037;-72
2024/02/29 02:06:18;;;;;;;9.32;1.60;;;;;;;;;;5042462;28;20056;-75
2024/02/29 02:08:49;;;;;;;8.48;2.40;;;;;;;;;;5042204;28;20057;-72
2024/02/29 02:11:20;;;;;;;7.10;2.25;;;;;;;;;;5041639;28;20037;-73
2024/02/29 02:13:51;;;;;;;12.23;1.98;;;;;;;;;;5042281;28;20532;-72
2024/02/29 02:16:21;;;;;;;8.52;1.90;;;;;;;;;;5042619;28;20048;-75
2024/02/29 02:18:53;;;;;;;7.60;1.50;;;;;;;;;;5040575;28;20421;-73
2024/02/29 02:21:24;;;;;;;7.05;1.70;;;;;;;;;;5042441;28;20059;-75
2024/02/29 02:23:54;;;;;;;4.38;1.25;;;;;;;;;;5041685;28;20049;-73
2024/02/29 02:26:24;;;;;;;7.55;1.77;;;;;;;;;;5041828;28;20499;-74
2024/02/29 02:28:54;;;;;;;9.38;1.45;;;;;;;;;;5042721;28;20416;-73
2024/02/29 02:31:26;;;;;;;4.05;1.38;;;;;;;;;;5041876;28;20507;-75
2024/02/29 02:33:58;;;;;;;8.75;1.70;;;;;;;;;;5042187;28;20401;-76
2024/02/29 02:36:28;;;;;;;10.38;1.70;;;;;;;;;;5042304;28;20068;-73
2024/02/29 02:38:58;;;;;;;5.05;1.35;;;;;;;;;;5045998;28;20060;-73
2024/02/29 02:41:28;;;;;;;7.47;1.70;;;;;;;;;;5046289;28;20044;-74
2024/02/29 02:43:58;;;;;;;5.45;1.85;;;;;;;;;;5045621;28;20053;-74
2024/02/29 02:46:30;;;;;;;8.93;1.60;;;;;;;;;;5044598;28;20539;-73
2024/02/29 02:49:00;;;;;;;7.40;1.75;;;;;;;;;;5046218;28;20053;-74
2024/02/29 02:51:30;;;;;;;6.88;1.52;;;;;;;;;;5045601;28;20060;-74
2024/02/29 02:54:00;;;;;;;6.60;1.65;;;;;;;;;;5046198;28;20044;-74
2024/02/29 02:56:30;;;;;;;6.80;1.23;;;;;;;;;;5045684;28;20530;-73
2024/02/29 02:59:01;;;;;;;12.68;1.60;;;;;;;;;;5045474;28;20052;-74
2024/02/29 03:01:32;;;;;;;8.57;1.73;;;;;;;;;;5045347;28;20045;-75
2024/02/29 03:04:04;;;;;;;6.15;1.40;;;;;;;;;;5045505;28;20518;-73
2024/02/29 03:06:34;;;;;;;4.45;1.50;;;;;;;;;;5045531;28;20504;-73
2024/02/29 03:09:07;;;;;;;6.97;1.25;;;;;;;;;;5045687;28;20497;-73
2024/02/29 03:11:39;;;;;;;6.15;1.55;;;;;;;;;;5045933;28;20057;-72
2024/02/29 03:14:10;;;;;;;7.97;1.55;;;;;;;;;;5045376;28;20041;-75
2024/02/29 03:16:40;;;;;;;10.38;1.75;;;;;;;;;;5044534;28;20061;-75
2024/02/29 03:19:12;;;;;;;8.95;1.50;;;;;;;;;;5044939;28;20056;-72
2024/02/29 03:21:43;;;;;;;7.80;1.70;;;;;;;;;;5044683;28;20044;-74
2024/02/29 03:24:14;;;;;;;6.63;1.33;;;;;;;;;;5044847;28;20627;-75
2024/02/29 03:26:44;;;;;;;12.45;1.70;;;;;;;;;;5045072;28;20045;-74
2024/02/29 03:29:15;;;;;;;6.03;1.40;;;;;;;;;;5045627;28;20056;-74
2024/02/29 03:31:49;;;;;;;6.70;1.58;;;;;;;;;;5045214;28;20055;-75
2024/02/29 03:34:19;;;;;;;8.02;1.77;;;;;;;;;;5044713;28;20036;-74
2024/02/29 03:36:49;;;;;;;6.68;1.42;;;;;;;;;;5045396;28;20052;-73
2024/02/29 03:39:20;;;;;;;7.20;1.70;;;;;;;;;;5044720;28;20048;-75
2024/02/29 03:41:51;;;;;;;8.32;1.48;;;;;;;;;;5045810;28;20526;-74
2024/02/29 03:44:22;;;;;;;2.75;1.00;;;;;;;;;;5045129;28;20037;-72
2024/02/29 03:46:52;;;;;;;11.45;1.48;;;;;;;;;;5044815;28;20048;-75
2024/02/29 03:49:22;;;;;;;4.72;1.35;;;;;;;;;;5043897;28;20041;-75
2024/02/29 03:51:52;;;;;;;5.47;1.67;;;;;;;;;;5044494;28;20060;-74
2024/02/29 03:54:23;;;;;;;9.65;2.28;;;;;;;;;;5044412;28;20041;-74
2024/02/29 03:56:55;;;;;;;5.95;1.55;;;;;;;;;;5044300;28;20072;-76
2024/02/29 03:59:25;;;;;;;6.78;1.40;;;;;;;;;;5045199;28;20044;-73
2024/02/29 04:01:55;;;;;;;7.95;1.83;;;;;;;;;;5045249;28;20060;-73
2024/02/29 04:04:26;;;;;;;14.23;1.50;;;;;;;;;;5043026;28;20149;-73
2024/02/29 04:06:57;;;;;;;11.52;1.95;;;;;;;;;;5043659;28;20512;-74
2024/02/29 04:09:29;;;;;;;3.92;1.50;;;;;;;;;;5044625;28;20056;-75
2024/02/29 04:11:59;;;;;;;8.68;1.88;;;;;;;;;;5044151;28;20056;-75
2024/02/29 04:14:30;;;;;;;6.22;1.55;;;;;;;;;;5044236;28;20048;-75
2024/02/29 04:17:00;;;;;;;6.50;1.50;;;;;;;;;;5045154;28;20045;-76
2024/02/29 04:19:30;;;;;;;12.07;2.22;;;;;;;;;;5042369;28;20045;-75
2024/02/29 04:22:01;;;;;;;8.93;1.73;;;;;;;;;;5044128;28;20049;-75
2024/02/29 04:24:32;;;;;;;4.85;1.23;;;;;;;;;;5043702;28;20464;-74
2024/02/29 04:27:04;;;;;;;4.18;1.38;;;;;;;;;;5043956;28;20053;-73
2024/02/29 04:29:34;;;;;;;7.35;1.27;;;;;;;;;;5043777;28;20393;-76
2024/02/29 04:32:04;;;;;;;9.20;1.70;;;;;;;;;;5044213;28;20420;-76
2024/02/29 04:34:34;;;;;;;5.03;1.38;;;;;;;;;;5044092;28;20045;-76
2024/02/29 04:37:06;;;;;;;6.97;1.60;;;;;;;;;;5043974;28;20045;-74
2024/02/29 04:39:38;;;;;;;7.35;1.48;;;;;;;;;;5044311;28;20059;-74
2024/02/29 04:42:08;;;;;;;6.05;1.30;;;;;;;;;;5043846;28;20052;-75
2024/02/29 04:44:38;;;;;;;4.78;1.20;;;;;;;;;;5043549;28;20495;-74
2024/02/29 04:47:09;;;;;;;5.90;1.67;;;;;;;;;;5043488;28;20044;-75
2024/02/29 04:49:40;;;;;;;6.43;1.73;;;;;;;;;;5043579;28;20052;-75
2024/02/29 04:52:11;;;;;;;6.05;1.23;;;;;;;;;;5042992;28;20044;-75
2024/02/29 04:54:41;;;;;;;4.70;1.30;;;;;;;;;;5044270;28;20069;-75
2024/02/29 04:57:11;;;;;;;3.75;1.13;;;;;;;;;;5043456;28;20037;-75
2024/02/29 04:59:43;;;;;;;5.88;1.65;;;;;;;;;;5043250;28;20060;-75
2024/02/29 05:02:15;;;;;;;8.32;1.40;;;;;;;;;;5042926;28;20053;-75
2024/02/29 05:04:46;;;;;;;6.60;1.88;;;;;;;;;;5043747;28;20052;-76
2024/02/29 05:07:16;;;;;;;3.92;1.30;;;;;;;;;;5043080;28;20045;-75
2024/02/29 05:09:47;;;;;;;5.10;1.08;;;;;;;;;;5043337;28;20385;-76
2024/02/29 05:12:19;;;;;;;5.78;1.30;;;;;;;;;;5043311;28;20052;-73
2024/02/29 05:14:50;;;;;;;4.53;1.30;;;;;;;;;;5043014;28;20059;-74
2024/02/29 05:17:20;;;;;;;5.03;1.67;;;;;;;;;;5043541;28;20058;-73
2024/02/29 05:19:51;;;;;;;3.88;1.30;;;;;;;;;;5044218;28;20049;-73
2024/02/29 05:22:22;;;;;;;5.32;1.38;;;;;;;;;;5043872;28;20056;-73
2024/02/29 05:24:55;;;;;;;3.70;1.00;;;;;;;;;;5041802;28;20049;-75
2024/02/29 05:27:29;;;;;;;3.25;1.50;;;;;;;;;;5042747;28;20072;-76
2024/02/29 05:30:01;;;;;;;4.30;1.40;;;;;;;;;;5042522;28;20411;-74
2024/02/29 05:32:32;;;;;;;2.70;1.52;;;;;;;;;;5042396;28;20049;-74
2024/02/29 05:35:05;;;;;;;3.55;1.08;;;;;;;;;;5042416;28;20507;-74
2024/02/29 05:37:36;;;;;;;9.50;1.63;;;;;;;;;;5041752;28;20060;-74
2024/02/29 05:40:07;;;;;;;9.43;1.70;;;;;;;;;;5042419;28;20056;-72
2024/02/29 05:42:38;;;;;;;7.57;1.23;;;;;;;;;;5042503;28;20393;-73
2024/02/29 05:45:10;;;;;;;6.00;1.63;;;;;;;;;;5041074;28;20072;-75
2024/02/29 05:47:41;;;;;;;7.45;1.50;;;;;;;;;;5042930;28;20037;-75
2024/02/29 05:50:11;;;;;;;10.00;1.88;;;;;;;;;;5042541;28;20036;-75
2024/02/29 05:52:41;;;;;;;5.10;1.60;;;;;;;;;;5042670;28;20056;-74
2024/02/29 05:55:12;;;;;;;8.88;1.38;;;;;;;;;;5042192;28;20124;-74
2024/02/29 05:57:43;;;;;;;6.05;1.33;;;;;;;;;;5042045;28;20056;-75
2024/02/29 06:00:14;;;;;;;7.28;1.30;;;;;;;;;;5042563;28;20499;-76
2024/02/29 06:02:44;;;;;;;3.10;1.50;;;;;;;;;;5042660;28;20053;-76
2024/02/29 06:05:20;;;;;;;3.97;1.40;;;;;;;;;;5042453;28;20041;-76
2024/02/29 06:07:51;;;;;;;6.35;1.55;;;;;;;;;;5042244;28;20056;-74
2024/02/29 06:10:22;;;;;;;10.88;1.85;;;;;;;;;;5041911;28;20057;-75
2024/02/29 06:12:52;;;;;;;4.15;1.60;;;;;;;;;;5042591;28;20048;-75
2024/02/29 06:15:23;;;;;;;5.85;2.28;;;;;;;;;;5042233;28;20123;-74
2024/02/29 06:17:55;;;;;;;5.07;1.92;;;;;;;;;;5041960;28;20060;-75
2024/02/29 06:20:26;;;;;;;9.57;2.60;;;;;;;;;;5042205;28;20510;-76
2024/02/29 06:22:58;;;;;;;6.75;2.30;;;;;;;;;;5042239;28;20799;-75
2024/02/29 06:25:30;;;;;;;5.43;2.10;;;;;;;;;;5042502;28;20045;-74
2024/02/29 06:28:01;;;;;;;10.32;2.53;;;;;;;;;;5042390;28;20507;-73
2024/02/29 06:30:34;;;;;;;7.55;2.47;;;;;;;;;;5041987;28;20052;-72
2024/02/29 06:33:04;;;;;;;9.32;2.40;;;;;;;;;;5041654;28;20041;-74
2024/02/29 06:35:35;;;;;;;9.02;2.75;;;;;;;;;;5041542;28;20056;-74
2024/02/29 06:38:06;;;;;;;12.25;3.00;;;;;;;;;;5042347;28;20059;-74
2024/02/29 06:40:36;;;;;;;9.52;3.42;;;;;;;;;;5042414;28;20045;-74
2024/02/29 06:43:06;;;;;;;5.70;3.25;;;;;;;;;;5042415;28;20759;-74
2024/02/29 06:45:37;;;;;;;10.43;2.90;;;;;;;;;;5042898;28;20531;-74
2024/02/29 06:48:09;;;;;;;6.20;2.58;;;;;;;;;;5042486;28;20064;-73
2024/02/29 06:50:39;;;;;;;6.20;2.58;;;;;;;;;;5041512;28;20393;-75
2024/02/29 06:53:15;;;;;;;9.23;2.70;;;;;;;;;;5041674;28;20041;-73
2024/02/29 06:55:46;;;;;;;9.35;3.25;;;;;;;;;;5040575;28;20049;-73
2024/02/29 06:58:17;;;;;;;7.22;2.85;;;;;;;;;;5041829;28;20048;-76
2024/02/29 07:00:48;;;;;;;5.57;2.72;;;;;;;;;;5041516;28;20830;-75
2024/02/29 07:03:17;;;;;;;6.18;3.60;;;;;;;;;;5041914;28;20048;-75
2024/02/29 07:05:49;;;;;;;6.85;3.83;;;;;;;;;;5041192;28;20052;-74
2024/02/29 07:08:19;;;;;;;9.00;2.90;;;;;;;;;;5041847;28;20053;-75
2024/02/29 07:10:49;;;;;;;9.35;2.92;;;;;;;;;;5042484;28;20064;-73
2024/02/29 07:13:19;;;;;;;9.52;3.55;;;;;;;;;;5042047;28;20048;-74
2024/02/29 07:15:50;;;;;;;8.95;4.00;;;;;;;;;;5040568;28;20064;-74
2024/02/29 07:18:24;;;;;;;9.88;3.70;;;;;;;;;;5041804;28;20056;-72
2024/02/29 07:20:54;;;;;;;11.00;3.33;;;;;;;;;;5041377;28;20045;-73
2024/02/29 07:23:24;;;;;;;7.45;3.45;;;;;;;;;;5041452;28;20045;-73
2024/02/29 07:25:54;;;;;;;11.93;4.03;;;;;;;;;;5045891;28;20056;-74
2024/02/29 07:28:26;;;;;;;10.90;3.58;;;;;;;;;;5045001;28;20036;-75
2024/02/29 07:30:57;;;;;;;8.27;2.92;;;;;;;;;;5045487;28;20500;-72
2024/02/29 07:33:28;;;;;;;11.02;2.83;;;;;;;;;;5044826;28;20412;-75
2024/02/29 07:35:59;;;;;;;7.18;3.50;;;;;;;;;;5045304;28;20056;-75
2024/02/29 07:38:31;;;;;;;9.18;3.60;;;;;;;;;;5045248;28;20387;-74
2024/02/29 07:41:03;;;;;;;12.18;3.78;;;;;;;;;;5044802;28;20059;-73
2024/02/29 07:43:34;;;;;;;11.05;3.53;;;;;;;;;;5045383;28;20056;-73
2024/02/29 07:46:04;;;;;;;5.93;2.95;;;;;;;;;;5043732;28;20382;-73
2024/02/29 07:48:36;;;;;;;7.35;2.92;;;;;;;;;;5044869;28;20048;-74
2024/02/29 07:51:09;;;;;;;6.65;2.30;;;;;;;;;;5043233;28;20053;-74
2024/02/29 07:53:40;;;;;;;8.25;2.42;;;;;;;;;;5044551;28;20045;-75
2024/02/29 07:56:10;;;;;;;5.15;2.40;;;;;;;;;;5044373;28;20066;-75
2024/02/29 07:58:40;;;;;;;4.95;2.22;;;;;;;;;;5044577;28;20049;-75
2024/02/29 08:01:11;;;;;;;4.47;2.40;;;;;;;;;;5043807;28;20057;-74
2024/02/29 08:03:41;;;;;;;5.05;2.55;;;;;;;;;;5043492;28;20056;-73
2024/02/29 08:06:12;;;;;;;5.75;2.70;;;;;;;;;;5045163;28;20049;-72
2024/02/29 08:08:43;;;;;;;5.63;2.60;;;;;;;;;;5043992;28;20068;-75
2024/02/29 08:11:14;;;;;;;8.50;3.10;;;;;;;;;;5044260;28;20036;-74
2024/02/29 08:13:44;;;;;;;4.53;2.58;;;;;;;;;;5044189;28;20041;-74
2024/02/29 08:16:14;;;;;;;5.68;2.72;;;;;;;;;;5044470;28;20056;-74
2024/02/29 08:18:44;;;;;;;3.55;2.60;;;;;;;;;;5044450;28;20057;-75
2024/02/29 08:21:16;;;;;;;5.97;3.88;;;;;;;;;;5043675;28;20056;-74
2024/02/29 08:23:46;;;;;;;5.93;3.03;;;;;;;;;;5043737;28;20416;-74
2024/02/29 08:26:17;;;;;;;6.13;3.25;;;;;;;;;;5044391;28;20404;-74
2024/02/29 08:28:49;;;;;;;8.15;3.67;;;;;;;;;;5044041;28;20052;-74
2024/02/29 08:31:20;;;;;;;8.13;3.35;;;;;;;;;;5043982;28;20610;-72
2024/02/29 08:33:51;;;;;;;10.30;3.03;;;;;;;;;;5044016;28;20719;-75
2024/02/29 08:36:22;;;;;;;12.63;4.93;;;;;;;;;;5042921;28;20045;-75
2024/02/29 08:38:52;;;;;;;12.02;4.20;;;;;;;;;;5044687;28;20067;-75
2024/02/29 08:41:22;;;;;;;10.38;3.90;;;;;;;;;;5043561;28;20060;-72
2024/02/29 08:43:53;;;;;;;8.30;3.35;;;;;;;;;;5043908;28;20049;-74
2024/02/29 08:46:23;;;;;;;6.55;3.33;;;;;;;;;;5043687;28;20056;-73
2024/02/29 08:48:53;;;;;;;6.35;3.25;;;;;;;;;;5043846;28;20538;-73
2024/02/29 08:51:26;;;;;;;8.93;3.53;;;;;;;;;;5044045;28;20406;-75
2024/02/29 08:53:57;;;;;;;8.52;3.95;;;;;;;;;;5043818;28;20056;-74
2024/02/29 08:56:28;;;;;;;33.75;4.32;;;;;;;;;;5043589;28;20052;-80
2024/02/29 08:58:59;;;;;;;24.33;5.53;;;;;;;;;;5043317;28;20504;-72
2024/02/29 09:01:29;;;;;;;20.67;4.13;;;;;;;;;;5042951;28;20522;-75
2024/02/29 09:04:00;;;;;;;10.68;4.20;;;;;;;;;;5043181;28;20538;-73
2024/02/29 09:06:31;;;;;;;15.80;4.63;;;;;;;;;;5042958;28;20507;-73
2024/02/29 09:09:09;;;;;;;18.77;4.40;;;;;;;;;;5043418;28;20428;-74
2024/02/29 09:11:43;;;;;;;18.17;4.50;;;;;;;;;;5043688;28;20407;-73
2024/02/29 09:14:15;;;;;;;54.55;5.60;;;;;;;;;;5043193;28;20416;-74
2024/02/29 09:16:45;;;;;;;58.78;4.40;;;;;;;;;;5041632;28;20051;-73
2024/02/29 09:19:15;;;;;;;39.20;4.32;;;;;;;;;;5043843;28;20056;-75
2024/02/29 09:21:47;;;;;;;14.77;3.85;;;;;;;;;;5042567;28;20052;-73
2024/02/29 09:24:18;;;;;;;19.70;4.18;;;;;;;;;;5043228;28;20049;-75
2024/02/29 09:26:49;;;;;;;11.63;4.63;;;;;;;;;;5043223;28;20492;-74
2024/02/29 09:29:19;;;;;;;9.98;4.70;;;;;;;;;;5042852;28;20431;-74
2024/02/29 09:31:52;;;;;;;13.68;4.20;;;;;;;;;;5043531;28;20541;-73
2024/02/29 09:34:23;;;;;;;23.48;4.25;;;;;;;;;;5042674;28;20051;-74
2024/02/29 09:36:54;;;;;;;19.08;4.82;;;;;;;;;;5042841;28;20057;-73
2024/02/29 09:39:24;;;;;;;17.60;4.25;;;;;;;;;;5042446;28;20048;-73
2024/02/29 09:41:55;;;;;;;18.65;4.32;;;;;;;;;;5042589;28;20045;-74
2024/02/29 09:44:44;;;;;;;8.38;3.72;;;;;;;;;;5041258;28;20045;-73
2024/02/29 09:47:19;;;;;;;9.00;3.22;;;;;;;;;;5041644;28;20053;-74
2024/02/29 09:49:50;;;;;;;14.27;3.63;;;;;;;;;;5042479;28;20045;-75
2024/02/29 09:52:35;;;;;;;14.32;3.38;;;;;;;;;;5042572;28;20045;-74
2024/02/29 09:55:07;;;;;;;;;;;;;;;;;;5041464;28;20060;-74
2024/02/29 09:57:38;;;;;;;7.55;2.90;;;;;;;;;;5042417;28;20292;-75
2024/02/29 10:00:12;;;;;;;7.63;3.10;;;;;;;;;;5040666;28;20052;-76
2024/02/29 10:02:43;;;;;;;9.27;3.20;;;;;;;;;;5042380;28;20503;-75
2024/02/29 10:05:14;;;;;;;6.57;3.20;;;;;;;;;;5042578;28;20056;-74
2024/02/29 10:07:49;;;;;;;14.00;3.65;;;;;;;;;;5042084;28;20045;-75
2024/02/29 10:10:19;;;;;;;8.55;3.35;;;;;;;;;;5042402;28;20060;-73
2024/02/29 10:12:56;;;;;;;23.63;3.83;;;;;;;;;;5042851;28;20053;-75
2024/02/29 10:15:28;;;;;;;8.75;2.70;;;;;;;;;;5042024;28;20041;-77
2024/02/29 10:17:59;;;;;;;7.93;2.80;;;;;;;;;;5041830;28;20044;-74
2024/02/29 10:20:32;;;;;;;8.73;3.05;;;;;;;;;;5041724;28;20062;-74
2024/02/29 10:23:12;;;;;;;16.10;3.00;;;;;;;;;;5042549;28;20052;-75
2024/02/29 10:25:43;;;;;;;14.63;2.83;;;;;;;;;;5041860;28;20056;-79
2024/02/29 10:28:14;;;;;;;11.45;3.90;;;;;;;;;;5042097;28;20056;-73
2024/02/29 10:30:54;;;;;;;12.35;2.70;;;;;;;;;;5041973;28;20049;-74
2024/02/29 10:33:26;;;;;;;7.93;2.53;;;;;;;;;;5042289;28;20504;-73
2024/02/29 10:35:57;;;;;;;13.73;3.83;;;;;;;;;;5042235;28;20052;-74
2024/02/29 10:38:31;;;;;;;6.32;3.00;;;;;;;;;;5042496;28;20049;-78
2024/02/29 10:41:08;;;;;;;21.98;3.28;;;;;;;;;;5026264;28;20841;-76
2024/02/29 10:43:45;;;;;;;5.40;2.90;;;;;;;;;;5042120;28;20053;-75
2024/02/29 10:46:20;;;;;;;16.83;5.75;;;;;;;;;;5041838;28;20068;-73
2024/02/29 10:48:51;;;;;;;15.88;3.45;;;;;;;;;;5042331;28;20052;-74
2024/02/29 10:51:33;;;;;;;7.13;2.50;;;;;;;;;;5042087;28;20488;-73
2024/02/29 10:54:20;;;;;;;10.82;2.35;;;;;;;;;;5041774;28;20052;-75
2024/02/29 10:56:54;;;;;;;9.73;2.83;;;;;;;;;;5041300;28;20037;-75
2024/02/29 10:59:28;;;;;;;10.10;2.58;;;;;;;;;;5043923;28;20053;-78
2024/02/29 11:02:00;;;;;;;6.07;2.92;;;;;;;;;;5045023;28;20128;-74
2024/02/29 11:04:32;;;;;;;9.48;3.10;;;;;;;;;;5046739;28;20045;-75
2024/02/29 11:07:03;;;;;;;4.90;2.33;;;;;;;;;;5045443;28;20063;-75
2024/02/29 11:09:35;;;;;;;4.80;2.33;;;;;;;;;;5045033;28;20044;-74
2024/02/29 11:12:09;;;;;;;9.18;3.05;;;;;;;;;;5044227;28;20060;-75
2024/02/29 11:14:45;;;;;;;6.75;2.47;;;;;;;;;;5045286;28;20045;-73
2024/02/29 11:17:17;;;;;;;11.00;3.97;;;;;;;;;;5046588;28;20045;-74
2024/02/29 11:19:58;;;;;;;8.50;2.42;;;;;;;;;;5044451;28;20546;-72
2024/02/29 11:22:33;;;;;;;7.75;2.63;;;;;;;;;;5044862;28;20060;-72
2024/02/29 11:25:10;;;;;;;8.32;3.25;;;;;;;;;;5044876;28;20053;-72
2024/02/29 11:27:50;;;;;;;8.35;2.90;;;;;;;;;;5044979;28;20053;-74
2024/02/29 11:30:23;;;;;;;7.43;2.95;;;;;;;;;;5045990;28;20527;-74
2024/02/29 11:32:54;;;;;;;5.60;2.70;;;;;;;;;;5043854;28;20045;-84
2024/02/29 11:35:27;;;;;;;6.07;3.08;;;;;;;;;;5043399;28;20044;-73
2024/02/29 11:38:01;;;;;;;11.68;3.00;;;;;;;;;;5043245;28;20058;-74
2024/02/29 11:40:35;;;;;;;9.88;3.05;;;;;;;;;;5043377;28;20045;-73
2024/02/29 11:43:07;;;;;;;8.48;2.85;;;;;;;;;;5042655;28;20068;-74
2024/02/29 11:45:39;;;;;;;11.82;3.42;;;;;;;;;;5042351;28;20052;-80
2024/02/29 11:48:10;;;;;;;8.65;3.30;;;;;;;;;;5041762;28;20045;-73
2024/02/29 11:50:40;;;;;;;14.60;3.50;;;;;;;;;;5043539;28;20040;-74
2024/02/29 11:53:11;;;;;;;7.82;2.90;;;;;;;;;;5043756;28;20389;-73
2024/02/29 11:55:43;;;;;;;10.68;3.00;;;;;;;;;;5045198;28;20053;-73
2024/02/29 11:58:16;;;;;;;12.40;3.17;;;;;;;;;;5044603;28;20049;-75
2024/02/29 12:00:47;;;;;;;6.82;2.55;;;;;;;;;;5044256;28;20051;-73
2024/02/29 12:03:17;;;;;;;9.65;2.45;;;;;;;;;;5044378;28;20048;-74
2024/02/29 12:05:50;;;;;;;10.35;3.50;;;;;;;;;;5044253;28;20432;-78
2024/02/29 12:08:21;;;;;;;10.20;2.72;;;;;;;;;;5044146;28;20053;-82
2024/02/29 12:10:53;;;;;;;7.75;2.80;;;;;;;;;;5043861;28;20540;-74
2024/02/29 12:13:28;;;;;;;8.13;2.45;;;;;;;;;;5044652;28;20542;-74
2024/02/29 12:15:59;;;;;;;10.27;2.83;;;;;;;;;;5044233;28;20049;-74
2024/02/29 12:18:33;;;;;;;9.10;2.55;;;;;;;;;;5044421;28;20528;-74
2024/02/29 12:21:05;;;;;;;7.80;2.60;;;;;;;;;;5044146;28;20041;-75
2024/02/29 12:23:35;;;;;;;5.03;2.38;;;;;;;;;;5045624;28;20060;-75
2024/02/29 12:26:11;;;;;;;8.38;2.75;;;;;;;;;;5044440;28;20045;-74
2024/02/29 12:28:42;;;;;;;6.75;2.33;;;;;;;;;;5045053;28;20408;-75
2024/02/29 12:31:14;;;;;;;6.65;2.60;;;;;;;;;;5044465;28;20049;-73
2024/02/29 12:33:46;;;;;;;4.20;2.20;;;;;;;;;;5043773;28;20483;-73
2024/02/29 12:36:18;;;;;;;6.80;2.40;;;;;;;;;;5042932;28;20052;-74
2024/02/29 12:38:52;;;;;;;8.80;2.60;;;;;;;;;;5026257;28;20041;-74
2024/02/29 12:41:24;;;;;;;12.25;3.00;;;;;;;;;;5043504;28;20057;-73
2024/02/29 12:43:56;;;;;;;6.57;2.55;;;;;;;;;;5043830;28;20590;-74
2024/02/29 12:46:28;;;;;;;7.65;2.55;;;;;;;;;;5043759;28;20423;-74
2024/02/29 12:48:58;;;;;;;7.15;2.92;;;;;;;;;;5043507;28;20049;-73
2024/02/29 12:51:29;;;;;;;7.68;2.40;;;;;;;;;;5044110;28;20076;-74
2024/02/29 12:53:58;;;;;;;6.03;2.20;;;;;;;;;;5043141;28;20045;-74
2024/02/29 12:56:30;;;;;;;3.40;2.13;;;;;;;;;;5041532;28;20044;-74
2024/02/29 12:59:00;;;;;;;5.35;1.95;;;;;;;;;;5042603;28;20554;-75
2024/02/29 13:01:33;;;;;;;7.18;2.30;;;;;;;;;;5043456;28;20053;-74
2024/02/29 13:04:03;;;;;;;6.47;2.17;;;;;;;;;;5043344;28;20602;-84
2024/02/29 13:06:34;;;;;;;5.72;1.90;;;;;;;;;;5043533;28;20049;-75
2024/02/29 13:09:05;;;;;;;6.65;2.60;;;;;;;;;;5042301;28;20414;-73
2024/02/29 13:11:37;;;;;;;6.88;2.30;;;;;;;;;;5042048;28;20037;-73
2024/02/29 13:14:07;;;;;;;11.95;5.97;;;;;;;;;;5042209;28;20514;-74
2024/02/29 13:16:39;;;;;;;11.38;2.40;;;;;;;;;;5043343;28;20442;-73
2024/02/29 13:19:14;;;;;;;5.90;2.72;;;;;;;;;;5043582;28;20149;-74
2024/02/29 13:21:45;;;;;;;5.63;2.38;;;;;;;;;;5042470;28;20056;-75
2024/02/29 13:24:15;;;;;;;4.13;1.88;;;;;;;;;;5042698;28;20053;-74
2024/02/29 13:26:46;;;;;;;5.68;2.30;;;;;;;;;;5042969;28;20045;-74
2024/02/29 13:29:19;;;;;;;5.75;1.92;;;;;;;;;;5042639;28;20049;-74
2024/02/29 13:31:49;;;;;;;7.90;2.10;;;;;;;;;;5042523;28;20594;-74
2024/02/29 13:34:20;;;;;;;7.03;2.25;;;;;;;;;;5042798;28;20049;-74
2024/02/29 13:36:50;;;;;;;5.10;1.98;;;;;;;;;;5042468;28;20052;-78
2024/02/29 13:39:21;;;;;;;7.38;2.35;;;;;;;;;;5041172;28;20508;-73
2024/02/29 13:41:52;;;;;;;6.00;4.00;;;;;;;;;;5042465;28;20037;-75
2024/02/29 13:44:23;;;;;;;4.22;2.50;;;;;;;;;;5040051;28;20524;-80
2024/02/29 13:46:54;;;;;;;7.07;2.67;;;;;;;;;;5043107;28;20053;-74
2024/02/29 13:49:26;;;;;;;5.38;2.40;;;;;;;;;;5042683;28;20077;-74
2024/02/29 13:51:56;;;;;;;4.80;2.80;;;;;;;;;;5042953;28;20621;-74
2024/02/29 13:54:27;;;;;;;6.45;3.53;;;;;;;;;;5042818;28;20064;-74
2024/02/29 13:56:57;;;;;;;6.20;2.92;;;;;;;;;;5042505;28;20055;-74
2024/02/29 13:59:28;;;;;;;9.15;4.10;;;;;;;;;;5042152;28;20518;-74
2024/02/29 14:01:58;;;;;;;12.82;3.95;;;;;;;;;;5042593;28;20534;-74
2024/02/29 14:04:29;;;;;;;7.82;4.47;;;;;;;;;;5042581;28;20045;-74
2024/02/29 14:06:59;;;;;;;9.45;4.50;;;;;;;;;;5043456;28;20051;-76
2024/02/29 14:09:30;;;;;;;12.80;4.60;;;;;;;;;;5042336;28;20057;-74
2024/02/29 14:12:04;;;;;;;15.50;5.47;;;;;;;;;;5040824;28;20080;-74
2024/02/29 14:14:36;;;;;;;11.70;5.20;;;;;;;;;;5040058;28;20060;-75
2024/02/29 14:17:06;;;;;;;9.93;6.30;;;;;;;;;;5043071;28;20041;-73
2024/02/29 14:19:38;;;;;;;11.10;5.38;;;;;;;;;;5040794;28;20103;-72
2024/02/29 14:22:09;;;;;;;10.45;5.85;;;;;;;;;;5041911;28;20051;-73
2024/02/29 14:24:39;;;;;;;12.07;6.47;;;;;;;;;;5039727;28;20064;-77
2024/02/29 14:27:14;;;;;;;13.13;7.72;;;;;;;;;;5042196;28;20045;-74
2024/02/29 14:29:46;;;;;;;12.07;7.43;;;;;;;;;;5041907;28;20512;-75
2024/02/29 14:32:18;;;;;;;12.68;7.43;;;;;;;;;;5042292;28;20492;-74
2024/02/29 14:34:48;;;;;;;12.13;6.53;;;;;;;;;;5047367;28;20439;-75
2024/02/29 14:37:19;;;;;;;15.27;8.32;;;;;;;;;;5046395;28;20675;-74
2024/02/29 14:39:52;;;;;;;12.95;7.80;;;;;;;;;;5045940;28;20056;-74
2024/02/29 14:42:22;;;;;;;17.42;10.27;;;;;;;;;;5046781;28;20067;-73
2024/02/29 14:44:53;;;;;;;10.75;8.00;;;;;;;;;;5044495;28;20546;-73
2024/02/29 14:47:23;;;;;;;11.82;7.15;;;;;;;;;;5046063;28;20048;-74
2024/02/29 14:49:55;;;;;;;14.05;7.60;;;;;;;;;;5046338;28;20056;-73
2024/02/29 14:52:27;;;;;;;13.65;7.40;;;;;;;;;;5046125;28;20752;-73
2024/02/29 14:54:58;;;;;;;9.65;6.85;;;;;;;;;;5045343;28;20045;-75
2024/02/29 14:57:28;;;;;;;10.20;6.03;;;;;;;;;;5046149;28;20392;-72
2024/02/29 14:59:59;;;;;;;13.55;10.43;;;;;;;;;;5046310;28;20064;-75
2024/02/29 15:02:33;;;;;;;10.35;5.03;;;;;;;;;;5045741;28;20057;-74
2024/02/29 15:05:09;;;;;;;7.75;5.65;;;;;;;;;;5044307;28;20131;-75